Time;durP1;ratioP1;P1;durP2;ratioP2;P2;SDS_P1;SDS_P2;PMS_P1;PMS_P2;Temp;Humidity;BMP_temperature;BMP_pressure;BME280_temperature;BME280_humidity;BME280_pressure;Samples;Min_cycle;Max_cycle;Signal;HPM_P1;HPM_P2
2022/10/15 00:02:37;;;;;;;25.77;18.60;;;;;;;13.26;100.00;100699.72;10373795;28;20466;-64
2022/10/15 00:07:37;;;;;;;31.75;19.52;;;;;;;13.22;100.00;100710.16;10373871;28;20041;-63
2022/10/15 00:12:37;;;;;;;28.77;22.00;;;;;;;13.18;100.00;100698.06;10374967;28;20061;-64
2022/10/15 00:17:38;;;;;;;28.23;20.17;;;;;;;13.22;100.00;100703.91;10372336;28;20136;-64
2022/10/15 00:22:38;;;;;;;34.20;22.20;;;;;;;13.31;100.00;100697.19;10375941;28;20441;-64
2022/10/15 00:27:39;;;;;;;33.05;20.23;;;;;;;13.37;100.00;100696.31;10383224;28;20386;-64
2022/10/15 00:32:39;;;;;;;27.08;21.10;;;;;;;13.47;100.00;100701.25;10384771;28;20049;-64
2022/10/15 00:37:39;;;;;;;27.98;23.35;;;;;;;13.51;100.00;100691.56;10384407;28;20030;-64
2022/10/15 00:42:40;;;;;;;30.23;23.00;;;;;;;13.53;100.00;100686.75;10381261;28;20038;-65
2022/10/15 00:47:45;;;;;;;30.38;21.85;;;;;;;13.57;100.00;100687.97;10381309;28;20533;-64
2022/10/15 00:53:07;;;;;;;32.00;22.00;;;;;;;13.57;100.00;100682.53;10380689;28;20030;-64
2022/10/15 00:58:14;;;;;;;33.63;21.90;;;;;;;13.51;100.00;100683.41;10380663;28;20038;-63
2022/10/15 01:03:15;;;;;;;33.15;22.65;;;;;;;13.47;100.00;100685.75;10381278;28;20037;-64
2022/10/15 01:08:15;;;;;;;33.40;25.98;;;;;;;13.48;100.00;100675.69;10379429;28;20030;-64
2022/10/15 01:13:25;;;;;;;37.47;26.55;;;;;;;13.47;100.00;100679.47;10361642;28;20058;-64
2022/10/15 01:18:40;;;;;;;39.03;26.42;;;;;;;13.47;100.00;100679.47;10380865;28;20038;-63
2022/10/15 01:24:05;;;;;;;34.38;26.50;;;;;;;13.48;100.00;100662.94;10394518;28;20109;-64
2022/10/15 01:29:43;;;;;;;36.40;25.48;;;;;;;13.54;100.00;100663.94;10379987;28;20030;-64
2022/10/15 01:34:52;;;;;;;40.97;27.58;;;;;;;13.59;100.00;100655.94;10378590;28;20033;-63
2022/10/15 01:39:55;;;;;;;41.75;28.15;;;;;;;13.52;100.00;100657.03;10393746;28;20041;-64
2022/10/15 01:45:01;;;;;;;37.13;26.40;;;;;;;13.35;100.00;100649.44;10393817;28;20497;-63
2022/10/15 01:50:02;;;;;;;35.45;27.00;;;;;;;13.24;100.00;100648.28;10393651;28;20040;-64
2022/10/15 01:55:04;;;;;;;43.55;26.35;;;;;;;13.16;100.00;100637.63;10360321;28;20045;-65
2022/10/15 02:00:04;;;;;;;44.97;26.85;;;;;;;13.04;100.00;100636.69;10392426;28;20119;-64
2022/10/15 02:05:05;;;;;;;38.95;25.10;;;;;;;12.95;100.00;100635.28;10382177;28;20528;-64
2022/10/15 02:10:20;;;;;;;34.50;25.98;;;;;;;12.92;100.00;100635.72;10393232;28;20390;-64
2022/10/15 02:15:51;;;;;;;33.25;26.20;;;;;;;12.87;100.00;100627.41;10377769;28;20080;-65
2022/10/15 02:20:56;;;;;;;33.63;24.70;;;;;;;12.94;100.00;100615.41;10390914;28;20063;-64
2022/10/15 02:25:56;;;;;;;44.13;25.80;;;;;;;12.79;100.00;100598.59;10377687;28;20080;-65
2022/10/15 02:30:57;;;;;;;38.42;28.10;;;;;;;12.73;100.00;100597.59;10376445;28;20347;-65
2022/10/15 02:35:57;;;;;;;42.33;27.10;;;;;;;12.67;100.00;100586.78;10376193;28;20065;-64
2022/10/15 02:40:58;;;;;;;41.38;28.70;;;;;;;12.59;100.00;100596.00;10376714;28;20037;-64
2022/10/15 02:45:58;;;;;;;36.75;28.33;;;;;;;12.71;100.00;100591.53;10375659;28;20037;-64
2022/10/15 02:50:58;;;;;;;39.55;31.08;;;;;;;12.70;100.00;100586.31;10376404;28;20470;-64
2022/10/15 02:55:59;;;;;;;38.85;30.75;;;;;;;12.59;100.00;100576.16;10376644;28;20390;-64
2022/10/15 03:00:59;;;;;;;40.03;28.98;;;;;;;12.50;100.00;100570.97;10391815;28;20168;-64
2022/10/15 03:06:00;;;;;;;36.75;27.10;;;;;;;12.45;100.00;100567.28;10375793;28;20490;-64
2022/10/15 03:11:00;;;;;;;38.63;27.20;;;;;;;12.38;100.00;100561.88;10375985;28;20116;-65
2022/10/15 03:16:04;;;;;;;40.33;26.63;;;;;;;12.31;100.00;100572.75;10375061;28;20037;-64
2022/10/15 03:21:05;;;;;;;41.63;31.70;;;;;;;12.31;100.00;100571.94;10373419;28;20030;-64
2022/10/15 03:26:05;;;;;;;41.45;28.30;;;;;;;12.27;100.00;100565.28;10375088;28;20030;-64
2022/10/15 03:31:06;;;;;;;40.90;31.38;;;;;;;12.19;100.00;100558.22;10390099;28;20030;-64
2022/10/15 03:36:06;;;;;;;42.20;30.13;;;;;;;12.17;100.00;100559.47;10380041;28;20037;-65
2022/10/15 03:41:07;;;;;;;48.30;32.65;;;;;;;12.13;100.00;100575.38;10374614;28;20040;-65
2022/10/15 03:46:07;;;;;;;47.53;32.28;;;;;;;12.19;100.00;100570.94;10373311;28;20061;-64
2022/10/15 03:51:08;;;;;;;45.13;32.53;;;;;;;12.34;100.00;100577.75;10374368;28;20092;-65
2022/10/15 03:56:08;;;;;;;47.13;34.30;;;;;;;12.54;100.00;100574.13;10373364;28;20045;-65
2022/10/15 04:01:13;;;;;;;50.28;34.75;;;;;;;12.69;100.00;100582.78;10373459;28;20037;-64
2022/10/15 04:06:14;;;;;;;40.95;33.30;;;;;;;12.77;100.00;100579.81;10373993;28;20038;-64
2022/10/15 04:11:14;;;;;;;39.63;31.90;;;;;;;12.83;100.00;100591.69;10373640;28;20422;-64
2022/10/15 04:16:15;;;;;;;46.03;32.42;;;;;;;12.94;100.00;100587.41;10371782;28;20049;-64
2022/10/15 04:21:15;;;;;;;46.15;32.63;;;;;;;12.99;100.00;100574.84;10372353;28;20084;-64
2022/10/15 04:26:16;;;;;;;50.38;30.85;;;;;;;13.03;100.00;100577.94;10372298;28;20066;-64
2022/10/15 04:31:16;;;;;;;38.45;30.23;;;;;;;12.96;100.00;100569.00;10372269;28;20026;-65
2022/10/15 04:36:17;;;;;;;33.70;26.55;;;;;;;12.90;100.00;100559.03;10374297;28;20045;-64
2022/10/15 04:41:17;;;;;;;34.35;28.33;;;;;;;12.90;100.00;100567.19;10374624;28;20168;-64
2022/10/15 04:46:18;;;;;;;39.95;30.65;;;;;;;13.00;100.00;100548.47;10372198;28;20041;-65
2022/10/15 04:51:19;;;;;;;42.72;29.00;;;;;;;13.04;100.00;100555.13;10372995;28;20076;-65
2022/10/15 04:56:21;;;;;;;36.47;30.85;;;;;;;12.98;100.00;100548.69;10373091;28;20034;-64
2022/10/15 05:01:22;;;;;;;44.67;30.33;;;;;;;12.90;100.00;100543.53;10371855;28;20042;-64
2022/10/15 05:06:22;;;;;;;39.85;30.13;;;;;;;12.82;100.00;100551.97;10380706;28;20030;-65
2022/10/15 05:11:24;;;;;;;34.78;28.23;;;;;;;12.79;100.00;100553.25;10380126;28;20409;-65
2022/10/15 05:16:26;;;;;;;38.72;30.08;;;;;;;12.82;100.00;100545.69;10380516;28;20072;-65
2022/10/15 05:21:27;;;;;;;34.55;29.15;;;;;;;12.80;100.00;100554.91;10378306;28;20044;-64
2022/10/15 05:26:28;;;;;;;38.58;28.17;;;;;;;12.80;100.00;100532.34;10394158;28;20389;-65
2022/10/15 05:31:29;;;;;;;41.33;29.45;;;;;;;12.70;100.00;100534.69;10378026;28;20026;-64
2022/10/15 05:36:29;;;;;;;34.60;28.13;;;;;;;12.69;100.00;100527.59;10377832;28;20034;-65
2022/10/15 05:41:30;;;;;;;48.70;30.58;;;;;;;12.79;100.00;100523.38;10377685;28;20041;-65
2022/10/15 05:46:30;;;;;;;36.10;26.20;;;;;;;12.88;100.00;100536.66;10379403;28;20046;-64
2022/10/15 05:51:30;;;;;;;44.47;29.63;;;;;;;12.95;100.00;100540.97;10377007;28;20045;-64
2022/10/15 05:56:31;;;;;;;35.22;26.33;;;;;;;12.98;100.00;100545.97;10378440;28;20088;-65
2022/10/15 06:01:31;;;;;;;35.45;25.48;;;;;;;13.03;100.00;100540.72;10376894;28;20493;-65
2022/10/15 06:06:31;;;;;;;32.22;24.30;;;;;;;13.03;100.00;100529.84;10376870;28;20041;-64
2022/10/15 06:11:32;;;;;;;33.67;24.17;;;;;;;12.97;100.00;100516.31;10359939;28;20060;-64
2022/10/15 06:16:32;;;;;;;34.15;23.23;;;;;;;13.02;100.00;100530.91;10377542;28;20053;-65
2022/10/15 06:21:33;;;;;;;29.45;22.45;;;;;;;13.06;100.00;100525.84;10377478;28;20030;-64
2022/10/15 06:26:33;;;;;;;29.08;22.10;;;;;;;13.04;100.00;100527.94;10377825;28;20048;-65
2022/10/15 06:31:33;;;;;;;31.02;24.92;;;;;;;13.05;100.00;100524.19;10392039;28;20061;-64
2022/10/15 06:36:34;;;;;;;31.45;22.70;;;;;;;13.09;100.00;100533.56;10376517;28;20045;-64
2022/10/15 06:41:34;;;;;;;33.85;24.23;;;;;;;13.15;100.00;100529.94;10376745;28;20037;-64
2022/10/15 06:46:35;;;;;;;44.33;28.63;;;;;;;13.19;100.00;100531.16;10376308;28;20038;-65
2022/10/15 06:51:36;;;;;;;49.13;28.88;;;;;;;13.27;100.00;100521.91;10376619;28;20034;-65
2022/10/15 06:56:36;;;;;;;53.05;30.25;;;;;;;13.31;100.00;100533.19;10374052;28;20026;-65
2022/10/15 07:01:37;;;;;;;41.92;30.38;;;;;;;13.36;100.00;100527.88;10374794;28;20053;-65
2022/10/15 07:06:37;;;;;;;40.58;29.42;;;;;;;13.45;100.00;100534.69;10375502;28;20092;-65
2022/10/15 07:11:38;;;;;;;44.63;31.00;;;;;;;13.51;100.00;100533.78;10375830;28;20081;-65
2022/10/15 07:16:38;;;;;;;46.80;30.05;;;;;;;13.52;100.00;100523.75;10374742;28;20129;-65
2022/10/15 07:21:39;;;;;;;54.55;34.42;;;;;;;13.51;100.00;100511.22;10375145;28;20026;-64
2022/10/15 07:26:39;;;;;;;44.45;31.77;;;;;;;13.55;100.00;100509.69;10375059;28;20038;-66
2022/10/15 07:31:39;;;;;;;36.90;27.58;;;;;;;13.58;100.00;100507.34;10374517;28;20038;-68
2022/10/15 07:36:40;;;;;;;36.03;23.67;;;;;;;13.60;100.00;100515.28;10375974;28;20052;-66
2022/10/15 07:41:40;;;;;;;34.25;23.27;;;;;;;13.61;100.00;100511.50;10373432;28;20032;-70
2022/10/15 07:46:41;;;;;;;31.80;26.05;;;;;;;13.63;100.00;100506.69;10374294;28;20048;-66
2022/10/15 07:51:41;;;;;;;28.52;22.08;;;;;;;13.73;100.00;100502.34;10390061;28;20041;-66
2022/10/15 07:56:42;;;;;;;27.40;20.20;;;;;;;13.85;100.00;100496.97;10372752;28;20419;-67
2022/10/15 08:01:42;;;;;;;25.88;18.65;;;;;;;14.03;100.00;100487.94;10374708;28;20386;-66
2022/10/15 08:06:42;;;;;;;27.23;21.00;;;;;;;14.28;100.00;100486.97;10375625;28;20060;-66
2022/10/15 08:11:43;;;;;;;30.25;23.67;;;;;;;14.37;100.00;100485.56;10374671;28;20065;-66
2022/10/15 08:16:43;;;;;;;33.42;27.45;;;;;;;14.51;100.00;100476.16;10373233;28;20390;-66
2022/10/15 08:21:44;;;;;;;39.72;27.33;;;;;;;14.74;100.00;100471.81;10371990;28;20042;-66
2022/10/15 08:26:45;;;;;;;41.33;30.85;;;;;;;15.00;100.00;100474.09;10373326;28;20069;-67
2022/10/15 08:31:45;;;;;;;37.92;29.17;;;;;;;15.40;100.00;100464.31;10374567;28;20084;-66
2022/10/15 08:36:45;;;;;;;36.83;28.08;;;;;;;15.31;100.00;100464.69;10373836;28;20068;-66
2022/10/15 08:41:52;;;;;;;41.22;26.33;;;;;;;15.21;100.00;100458.19;10373408;28;20358;-67
2022/10/15 08:46:58;;;;;;;33.00;24.73;;;;;;;15.26;100.00;100464.59;10395978;28;20086;-66
2022/10/15 08:52:05;;;;;;;28.47;23.80;;;;;;;15.31;100.00;100461.94;10381169;28;20540;-66
2022/10/15 08:57:16;;;;;;;31.08;24.35;;;;;;;15.16;100.00;100456.19;10380083;28;20037;-66
2022/10/15 09:02:18;;;;;;;31.80;22.80;;;;;;;14.78;100.00;100456.66;10396814;28;20038;-68
2022/10/15 09:07:22;;;;;;;26.23;20.77;;;;;;;14.48;100.00;100465.69;10380387;28;20462;-69
2022/10/15 09:12:49;;;;;;;25.58;20.75;;;;;;;14.30;100.00;100457.63;10379386;28;20571;-70
2022/10/15 09:17:50;;;;;;;28.35;21.23;;;;;;;14.32;100.00;100452.75;10394763;28;20089;-69
2022/10/15 09:22:51;;;;;;;28.02;21.23;;;;;;;14.31;100.00;100453.81;10379981;28;20084;-73
2022/10/15 09:27:51;;;;;;;27.67;21.02;;;;;;;14.41;100.00;100445.91;10396056;28;20067;-69
2022/10/15 09:32:54;;;;;;;26.98;19.33;;;;;;;14.19;100.00;100445.59;10378905;28;20486;-70
2022/10/15 09:38:12;;;;;;;25.42;20.30;;;;;;;14.38;100.00;100436.28;10378086;28;20485;-73
2022/10/15 09:43:12;;;;;;;;;;;;;;;14.40;100.00;100438.81;10379146;28;20036;-71
2022/10/15 09:48:17;;;;;;;24.65;19.52;;;;;;;14.51;100.00;100435.28;10394176;28;19906;-73
2022/10/15 09:53:24;;;;;;;25.63;16.60;;;;;;;14.40;100.00;100423.28;10378429;28;20178;-72
2022/10/15 09:58:29;;;;;;;19.27;16.05;;;;;;;14.50;100.00;100428.16;10394179;28;20036;-72
2022/10/15 10:03:31;;;;;;;17.77;13.70;;;;;;;14.51;100.00;100429.00;10377645;28;20025;-72
2022/10/15 10:08:37;;;;;;;15.63;13.70;;;;;;;14.45;100.00;100421.75;10377430;28;20121;-72
2022/10/15 10:13:49;;;;;;;12.03;10.73;;;;;;;14.37;100.00;100431.91;10392932;28;20045;-72
2022/10/15 10:19:04;;;;;;;11.63;10.18;;;;;;;14.28;100.00;100436.03;10391927;28;20699;-72
2022/10/15 10:24:33;;;;;;;12.73;10.10;;;;;;;14.22;100.00;100436.16;10376546;28;20030;-71
2022/10/15 10:29:36;;;;;;;19.33;9.10;;;;;;;14.24;100.00;100434.84;10377044;28;20040;-72
2022/10/15 10:34:37;;;;;;;10.55;8.50;;;;;;;14.21;100.00;100429.06;10344603;28;20025;-72
2022/10/15 10:39:37;;;;;;;7.60;6.90;;;;;;;14.20;100.00;100425.50;10360881;28;20030;-72
2022/10/15 10:44:45;;;;;;;8.50;6.60;;;;;;;14.29;100.00;100436.88;10375049;28;20492;-73
2022/10/15 10:49:50;;;;;;;7.32;6.43;;;;;;;14.34;100.00;100423.38;10359333;28;20140;-73
2022/10/15 10:55:17;;;;;;;9.15;6.50;;;;;;;14.40;100.00;100420.56;10374614;28;20462;-72
2022/10/15 11:00:37;;;;;;;;;;;;;;;14.46;100.00;100413.34;10371553;28;20466;-72
2022/10/15 11:05:38;;;;;;;7.95;6.07;;;;;;;14.59;100.00;100415.88;10374800;28;19905;-72
2022/10/15 11:10:50;;;;;;;8.05;7.20;;;;;;;14.72;100.00;100405.81;10359247;28;20049;-70
2022/10/15 11:16:06;;;;;;;8.70;7.72;;;;;;;14.90;100.00;100400.25;10374874;28;20048;-69
2022/10/15 11:21:19;;;;;;;8.57;7.78;;;;;;;15.09;100.00;100407.22;10358598;28;20030;-68
2022/10/15 11:26:34;;;;;;;8.25;7.45;;;;;;;15.26;100.00;100401.00;10374349;28;20045;-69
2022/10/15 11:31:37;;;;;;;9.80;8.75;;;;;;;15.24;100.00;100406.69;10374839;28;20030;-69
2022/10/15 11:36:40;;;;;;;9.98;8.98;;;;;;;15.40;100.00;100399.66;10375770;28;20053;-68
2022/10/15 11:41:46;;;;;;;8.65;7.93;;;;;;;15.62;100.00;100394.38;10373292;28;20041;-68
2022/10/15 11:47:05;;;;;;;9.80;8.80;;;;;;;15.70;100.00;100412.31;10374971;28;20096;-68
2022/10/15 11:52:15;;;;;;;9.25;8.27;;;;;;;15.61;100.00;100405.56;10374769;28;20103;-66
2022/10/15 11:57:16;;;;;;;7.90;7.10;;;;;;;15.59;100.00;100414.78;10374048;28;20458;-66
2022/10/15 12:02:23;;;;;;;8.88;8.02;;;;;;;15.60;100.00;100426.53;10356535;28;20040;-68
2022/10/15 12:07:30;;;;;;;7.47;6.88;;;;;;;15.68;100.00;100428.09;10373333;28;20381;-68
2022/10/15 12:12:36;;;;;;;;;;;;;;;15.65;100.00;100421.19;10375303;28;20189;-69
2022/10/15 12:17:51;;;;;;;7.97;6.90;;;;;;;15.55;100.00;100429.16;10377241;28;19916;-68
2022/10/15 12:22:51;;;;;;;6.53;5.82;;;;;;;15.47;100.00;100426.81;10365356;28;20034;-68
2022/10/15 12:28:02;;;;;;;6.38;5.38;;;;;;;15.89;100.00;100418.38;10381706;28;20040;-68
2022/10/15 12:33:23;;;;;;;11.07;6.38;;;;;;;16.31;100.00;100431.72;10381309;28;20040;-67
2022/10/15 12:38:31;;;;;;;6.18;5.57;;;;;;;16.43;100.00;100413.31;10363151;28;20435;-70
2022/10/15 12:43:33;;;;;;;5.35;4.85;;;;;;;16.51;100.00;100424.69;10380149;28;20433;-69
2022/10/15 12:48:43;;;;;;;4.88;4.38;;;;;;;16.62;100.00;100435.78;10364828;28;20121;-66
2022/10/15 12:53:45;;;;;;;4.35;3.67;;;;;;;17.20;100.00;100431.75;10363343;28;20034;-65
2022/10/15 12:58:46;;;;;;;2.25;2.05;;;;;;;17.89;100.00;100440.28;10379075;28;20128;-69
2022/10/15 13:03:49;;;;;;;2.70;2.50;;;;;;;18.22;100.00;100445.81;10346485;28;20458;-66
2022/10/15 13:09:02;;;;;;;3.22;2.10;;;;;;;17.34;100.00;100456.84;10380137;28;20203;-66
2022/10/15 13:14:11;;;;;;;2.20;1.00;;;;;;;16.84;100.00;100466.78;10378785;28;20034;-67
2022/10/15 13:19:28;;;;;;;1.23;1.13;;;;;;;16.71;100.00;100481.59;10379843;28;20034;-65
2022/10/15 13:24:37;;;;;;;2.13;1.98;;;;;;;16.72;100.00;100482.44;10363972;28;20025;-65
2022/10/15 13:29:38;;;;;;;1.45;1.35;;;;;;;16.52;100.00;100489.19;10378770;28;20026;-65
2022/10/15 13:34:38;;;;;;;5.13;1.85;;;;;;;16.92;100.00;100493.72;10378021;28;20026;-66
2022/10/15 13:39:39;;;;;;;3.92;1.67;;;;;;;16.71;100.00;100489.78;10362154;28;20034;-65
2022/10/15 13:44:39;;;;;;;1.25;1.10;;;;;;;16.52;100.00;100488.38;10377756;28;20033;-66
2022/10/15 13:49:40;;;;;;;2.08;1.23;;;;;;;16.80;100.00;100501.19;10379865;28;20140;-65
2022/10/15 13:54:41;;;;;;;1.10;1.00;;;;;;;17.33;100.00;100499.81;10378643;28;20034;-67
2022/10/15 13:59:43;;;;;;;1.75;1.10;;;;;;;17.30;100.00;100500.31;10344004;28;20022;-65
2022/10/15 14:04:44;;;;;;;5.43;1.33;;;;;;;16.83;100.00;100506.16;10377556;28;20044;-66
2022/10/15 14:09:45;;;;;;;4.25;1.45;;;;;;;16.69;100.00;100510.28;10316119;28;20050;-63
2022/10/15 14:14:46;;;;;;;1.10;1.10;;;;;;;17.01;100.00;100504.25;10374398;28;20037;-65
2022/10/15 14:19:49;;;;;;;4.03;1.50;;;;;;;17.09;100.00;100509.28;10344269;28;20446;-64
2022/10/15 14:24:50;;;;;;;2.92;1.15;;;;;;;16.78;100.00;100518.91;10375526;28;20373;-64
2022/10/15 14:29:55;;;;;;;12.07;1.65;;;;;;;16.88;100.00;100528.13;10375314;28;20029;-65
2022/10/15 14:34:59;;;;;;;1.52;1.42;;;;;;;16.90;100.00;100525.94;10376461;28;20026;-65
2022/10/15 14:40:08;;;;;;;3.92;2.10;;;;;;;16.66;100.00;100527.16;10358718;28;20121;-66
2022/10/15 14:45:19;;;;;;;2.78;1.45;;;;;;;16.74;100.00;100524.00;10376021;28;20129;-67
2022/10/15 14:50:23;;;;;;;5.25;1.90;;;;;;;16.48;100.00;100531.78;10373858;28;20124;-64
2022/10/15 14:55:24;;;;;;;1.58;0.90;;;;;;;16.27;100.00;100543.38;10374481;28;20022;-65
2022/10/15 15:00:46;;;;;;;4.38;2.55;;;;;;;16.07;100.00;100549.28;10376465;28;20034;-64
2022/10/15 15:05:54;;;;;;;8.85;1.88;;;;;;;16.06;100.00;100555.00;10361346;28;20136;-64
2022/10/15 15:10:55;;;;;;;2.63;1.30;;;;;;;16.01;100.00;100551.06;10375548;28;20045;-64
2022/10/15 15:15:55;;;;;;;6.65;1.60;;;;;;;15.78;100.00;100543.78;10358051;28;20099;-64
2022/10/15 15:20:58;;;;;;;6.63;2.17;;;;;;;15.60;100.00;100554.81;10375212;28;20339;-64
2022/10/15 15:25:58;;;;;;;1.70;1.60;;;;;;;15.56;100.00;100551.72;10374301;28;20053;-64
2022/10/15 15:31:00;;;;;;;4.50;1.60;;;;;;;15.53;100.00;100563.13;10373405;28;20450;-64
2022/10/15 15:36:06;;;;;;;5.65;1.88;;;;;;;15.39;100.00;100556.25;10342461;28;20052;-64
2022/10/15 15:41:11;;;;;;;5.10;2.60;;;;;;;15.25;100.00;100554.81;10375379;28;20026;-64
2022/10/15 15:46:11;;;;;;;3.70;2.15;;;;;;;15.18;100.00;100560.41;10373345;28;20036;-64
2022/10/15 15:51:23;;;;;;;6.82;2.40;;;;;;;15.14;100.00;100551.03;10374163;28;20030;-65
2022/10/15 15:56:23;;;;;;;2.47;1.67;;;;;;;15.15;100.00;100557.31;10374830;28;20034;-65
2022/10/15 16:01:24;;;;;;;3.45;1.52;;;;;;;15.02;100.00;100559.19;10373472;28;20117;-64
2022/10/15 16:06:24;;;;;;;3.63;2.20;;;;;;;14.98;100.00;100560.75;10374084;28;20060;-64
2022/10/15 16:11:25;;;;;;;6.25;2.25;;;;;;;14.86;100.00;100562.59;10373892;28;20507;-64
2022/10/15 16:16:25;;;;;;;6.78;2.90;;;;;;;14.79;100.00;100568.16;10372755;28;20033;-64
2022/10/15 16:21:26;;;;;;;7.88;2.15;;;;;;;14.70;100.00;100566.84;10373699;28;20470;-64
2022/10/15 16:26:27;;;;;;;8.68;2.38;;;;;;;14.57;100.00;100569.75;10372789;28;20030;-64
2022/10/15 16:31:27;;;;;;;8.80;2.55;;;;;;;14.52;100.00;100573.19;10373609;28;20421;-64
2022/10/15 16:36:28;;;;;;;11.18;1.75;;;;;;;14.48;100.00;100585.56;10372091;28;20108;-64
2022/10/15 16:41:28;;;;;;;10.07;2.45;;;;;;;14.45;100.00;100588.75;10371626;28;20096;-64
2022/10/15 16:46:29;;;;;;;14.63;3.95;;;;;;;14.40;100.00;100599.53;10355820;28;20124;-64
2022/10/15 16:51:29;;;;;;;7.88;3.08;;;;;;;14.29;100.00;100600.28;10373486;28;20026;-64
2022/10/15 16:56:30;;;;;;;16.25;3.03;;;;;;;14.42;100.00;100605.56;10373212;28;20227;-65
2022/10/15 17:01:30;;;;;;;9.65;1.83;;;;;;;14.64;100.00;100608.66;10373336;28;20079;-64
2022/10/15 17:06:31;;;;;;;14.55;4.18;;;;;;;14.78;100.00;100614.75;10378556;28;20042;-63
2022/10/15 17:11:36;;;;;;;5.20;3.35;;;;;;;14.88;100.00;100631.38;10363467;28;20140;-64
2022/10/15 17:16:44;;;;;;;4.20;2.65;;;;;;;14.93;100.00;100638.84;10380367;28;20069;-64
2022/10/15 17:21:45;;;;;;;5.00;3.60;;;;;;;14.97;100.00;100659.97;10380152;28;20113;-65
2022/10/15 17:26:45;;;;;;;9.68;3.53;;;;;;;14.99;100.00;100641.47;10378196;28;20105;-65
2022/10/15 17:31:46;;;;;;;5.43;1.95;;;;;;;15.03;100.00;100661.78;10380316;28;20425;-65
2022/10/15 17:36:47;;;;;;;5.30;1.98;;;;;;;14.95;100.00;100664.81;10378949;28;20037;-64
2022/10/15 17:41:48;;;;;;;7.45;2.20;;;;;;;14.96;100.00;100666.47;10378356;28;20083;-64
2022/10/15 17:46:49;;;;;;;6.65;1.45;;;;;;;14.86;100.00;100666.19;10379223;28;20373;-63
2022/10/15 17:51:50;;;;;;;5.50;2.85;;;;;;;14.81;100.00;100682.44;10380067;28;20034;-64
2022/10/15 17:56:50;;;;;;;5.30;2.60;;;;;;;14.75;100.00;100697.81;10380697;28;20117;-65
2022/10/15 18:01:50;;;;;;;3.42;2.10;;;;;;;14.67;100.00;100700.03;10384212;28;20061;-64
2022/10/15 18:06:51;;;;;;;19.52;3.65;;;;;;;14.72;100.00;100702.91;10378955;28;20069;-65
2022/10/15 18:11:51;;;;;;;4.38;2.00;;;;;;;14.68;100.00;100723.47;10379796;28;20474;-64
2022/10/15 18:16:52;;;;;;;11.27;2.72;;;;;;;14.72;100.00;100697.44;10378913;28;20041;-64
2022/10/15 18:21:53;;;;;;;4.65;1.70;;;;;;;14.78;100.00;100719.16;10377820;28;20057;-64
2022/10/15 18:26:53;;;;;;;8.52;2.42;;;;;;;14.84;100.00;100711.97;10392730;28;20369;-64
2022/10/15 18:31:55;;;;;;;2.72;2.20;;;;;;;14.82;100.00;100714.09;10377523;28;20022;-64
2022/10/15 18:36:56;;;;;;;7.10;2.50;;;;;;;14.74;100.00;100703.47;10376320;28;20046;-64
2022/10/15 18:41:56;;;;;;;4.15;2.22;;;;;;;14.79;100.00;100725.44;10378594;28;20056;-64
2022/10/15 18:46:56;;;;;;;4.90;1.90;;;;;;;14.75;100.00;100725.06;10377486;28;20033;-64
2022/10/15 18:51:57;;;;;;;10.10;2.20;;;;;;;14.73;100.00;100724.47;10376522;28;20413;-64
2022/10/15 18:56:57;;;;;;;7.45;2.10;;;;;;;14.64;100.00;100728.56;10376346;28;20117;-64
2022/10/15 19:01:58;;;;;;;4.00;1.67;;;;;;;14.51;100.00;100728.72;10376052;28;20038;-64
2022/10/15 19:07:01;;;;;;;3.85;1.63;;;;;;;14.47;100.00;100731.03;10375589;28;20041;-64
2022/10/15 19:12:01;;;;;;;2.38;1.73;;;;;;;14.49;100.00;100733.56;10375684;28;20402;-65
2022/10/15 19:17:01;;;;;;;4.72;2.55;;;;;;;14.34;100.00;100742.91;10375614;28;20049;-64
2022/10/15 19:22:02;;;;;;;1.20;1.17;;;;;;;14.16;100.00;100743.72;10374992;28;20029;-65
2022/10/15 19:27:02;;;;;;;2.15;1.55;;;;;;;14.04;100.00;100744.69;10374821;28;20092;-64
2022/10/15 19:32:03;;;;;;;4.18;3.00;;;;;;;13.97;100.00;100739.31;10374881;28;20454;-64
2022/10/15 19:37:03;;;;;;;8.63;2.03;;;;;;;13.84;100.00;100742.97;10375557;28;20453;-64
2022/10/15 19:42:04;;;;;;;1.85;1.75;;;;;;;13.78;100.00;100753.94;10373781;28;20053;-64
2022/10/15 19:47:04;;;;;;;6.90;2.75;;;;;;;13.69;100.00;100748.78;10373675;28;20044;-64
2022/10/15 19:52:05;;;;;;;6.10;2.17;;;;;;;13.62;100.00;100742.53;10375363;28;20096;-65
2022/10/15 19:57:05;;;;;;;10.20;3.15;;;;;;;13.52;100.00;100735.94;10374670;28;20037;-65
2022/10/15 20:02:06;;;;;;;11.35;2.55;;;;;;;13.64;100.00;100745.88;10374751;28;20121;-65
2022/10/15 20:07:06;;;;;;;2.45;1.77;;;;;;;13.78;100.00;100745.75;10373882;28;20041;-64
2022/10/15 20:12:07;;;;;;;3.92;2.55;;;;;;;13.93;100.00;100749.81;10374156;28;20084;-65
2022/10/15 20:17:07;;;;;;;7.18;2.72;;;;;;;14.02;100.00;100750.38;10373045;28;20036;-65
2022/10/15 20:22:08;;;;;;;2.72;1.80;;;;;;;14.12;100.00;100753.41;10374696;28;20042;-64
2022/10/15 20:27:08;;;;;;;5.03;2.05;;;;;;;14.19;100.00;100764.22;10375065;28;20365;-64
2022/10/15 20:32:12;;;;;;;3.15;1.42;;;;;;;14.16;100.00;100765.50;10374142;28;20508;-64
2022/10/15 20:37:14;;;;;;;6.20;3.10;;;;;;;14.19;100.00;100770.50;10375569;28;20033;-64
2022/10/15 20:42:15;;;;;;;4.85;1.52;;;;;;;14.23;100.00;100773.66;10380562;28;20049;-65
2022/10/15 20:47:15;;;;;;;3.35;2.53;;;;;;;14.25;100.00;100784.31;10381802;28;20457;-64
2022/10/15 20:52:16;;;;;;;2.83;1.65;;;;;;;14.26;100.00;100785.97;10381779;28;20142;-64
2022/10/15 20:57:16;;;;;;;13.25;2.03;;;;;;;14.24;100.00;100793.53;10364545;28;20099;-64
2022/10/15 21:02:17;;;;;;;5.97;2.17;;;;;;;14.24;100.00;100791.63;10379861;28;20033;-64
2022/10/15 21:07:17;;;;;;;8.80;3.17;;;;;;;14.29;100.00;100801.84;10381961;28;20038;-65
2022/10/15 21:12:18;;;;;;;3.88;2.40;;;;;;;14.25;100.00;100806.91;10378813;28;20081;-65
2022/10/15 21:17:18;;;;;;;7.80;2.95;;;;;;;14.18;100.00;100808.88;10379302;28;20109;-64
2022/10/15 21:22:19;;;;;;;4.13;2.15;;;;;;;14.09;100.00;100819.22;10379007;28;20036;-64
2022/10/15 21:27:19;;;;;;;6.88;2.70;;;;;;;14.01;100.00;100807.75;10379212;28;20076;-64
2022/10/15 21:32:20;;;;;;;4.32;2.63;;;;;;;13.89;100.00;100824.00;10380246;28;20029;-64
2022/10/15 21:37:20;;;;;;;6.78;1.73;;;;;;;13.77;100.00;100833.91;10379785;28;20037;-64
2022/10/15 21:42:20;;;;;;;3.30;1.63;;;;;;;13.68;100.00;100834.16;10380011;28;20327;-64
2022/10/15 21:47:21;;;;;;;1.73;1.58;;;;;;;13.51;100.00;100837.66;10379899;28;20037;-64
2022/10/15 21:52:21;;;;;;;4.75;2.15;;;;;;;13.44;100.00;100845.84;10378242;28;20037;-64
2022/10/15 21:57:22;;;;;;;4.75;1.40;;;;;;;13.44;100.00;100851.28;10378904;28;20038;-64
2022/10/15 22:02:22;;;;;;;6.85;2.28;;;;;;;13.48;100.00;100849.81;10378740;28;20347;-64
2022/10/15 22:07:22;;;;;;;7.07;1.80;;;;;;;13.44;100.00;100848.56;10377287;28;20030;-64
2022/10/15 22:12:23;;;;;;;3.70;1.48;;;;;;;13.36;100.00;100841.47;10379929;28;20516;-64
2022/10/15 22:17:23;;;;;;;1.48;1.10;;;;;;;13.35;100.00;100847.16;10376784;28;20034;-65
2022/10/15 22:22:24;;;;;;;2.08;1.42;;;;;;;13.47;100.00;100845.41;10375732;28;20034;-64
2022/10/15 22:27:25;;;;;;;1.90;1.52;;;;;;;13.57;100.00;100837.63;10379005;28;20038;-64
2022/10/15 22:32:25;;;;;;;2.92;2.00;;;;;;;13.66;100.00;100835.47;10376073;28;20033;-69
2022/10/15 22:37:26;;;;;;;2.63;1.55;;;;;;;13.77;100.00;100836.66;10376738;28;20044;-66
2022/10/15 22:42:26;;;;;;;5.43;2.35;;;;;;;13.93;100.00;100847.81;10376574;28;20034;-66